createdAt,value
2023-05-05T00:01:06.156Z,100025.81
2023-05-05T00:03:34.332Z,100014.47
2023-05-05T00:06:00.825Z,100022.63
2023-05-05T00:08:28.395Z,100028.69
2023-05-05T00:10:55.910Z,100024.28
2023-05-05T00:13:22.471Z,100024.44
2023-05-05T00:15:50.938Z,100013.84
2023-05-05T00:18:17.888Z,100021.91
2023-05-05T00:20:46.962Z,100016.72
2023-05-05T00:23:14.726Z,100017.59
2023-05-05T00:25:41.028Z,100016.78
2023-05-05T00:28:07.367Z,100008.22
2023-05-05T00:30:34.556Z,100023.22
2023-05-05T00:33:01.405Z,100029.63
2023-05-05T00:35:27.741Z,100018.50
2023-05-05T00:37:55.151Z,100025.59
2023-05-05T00:40:21.661Z,100021.31
2023-05-05T00:42:50.623Z,100027.75
2023-05-05T00:45:18.552Z,100016.31
2023-05-05T00:47:52.493Z,100026.28
2023-05-05T00:50:24.332Z,100022.91
2023-05-05T00:52:54.051Z,100022.97
2023-05-05T00:55:20.687Z,100012.41
2023-05-05T00:57:48.599Z,100012.53
2023-05-05T01:00:15.473Z,100011.72
2023-05-05T01:02:42.228Z,100017.81
2023-05-05T01:05:10.007Z,100002.13
2023-05-05T01:08:13.545Z,100020.47
2023-05-05T01:10:52.908Z,100017.81
2023-05-05T01:13:31.391Z,100016.94
2023-05-05T01:16:24.882Z,100009.91
2023-05-05T01:19:17.105Z,100000.34
2023-05-05T01:21:48.254Z,99996.16
2023-05-05T01:24:23.447Z,99998.59
2023-05-05T01:27:16.122Z,99997.75
2023-05-05T01:30:12.764Z,99999.72
2023-05-05T01:32:44.547Z,99980.63
2023-05-05T01:35:29.827Z,99973.81
2023-05-05T01:38:05.579Z,99978.28
2023-05-05T01:40:37.639Z,99973.13
2023-05-05T01:43:07.393Z,99971.44
2023-05-05T01:45:36.711Z,99963.72
2023-05-05T01:48:05.222Z,99966.31
2023-05-05T01:50:31.948Z,99944.53
2023-05-05T01:52:59.329Z,99975.25
2023-05-05T01:55:27.959Z,99978.03
2023-05-05T01:57:57.031Z,99988.59
2023-05-05T02:00:25.050Z,99983.38
2023-05-05T02:02:54.641Z,99984.44
2023-05-05T02:05:23.658Z,100004.00
2023-05-05T02:07:52.932Z,100010.25
2023-05-05T02:10:19.225Z,99997.16
2023-05-05T02:12:47.440Z,100012.25
2023-05-05T02:15:16.404Z,100022.03
2023-05-05T02:17:43.894Z,100024.56
2023-05-05T02:20:15.962Z,100021.06
2023-05-05T02:22:42.415Z,100024.44
2023-05-05T02:25:09.717Z,100020.84
2023-05-05T02:27:38.068Z,100020.69
2023-05-05T02:30:11.218Z,100013.50
2023-05-05T02:32:53.672Z,100025.78
2023-05-05T02:35:24.233Z,100020.16
2023-05-05T02:37:56.027Z,100020.91
2023-05-05T02:40:26.350Z,100020.91
2023-05-05T02:42:54.584Z,100019.78
2023-05-05T02:45:23.236Z,100025.44
2023-05-05T02:47:49.628Z,100019.94
2023-05-05T02:50:16.044Z,100036.75
2023-05-05T02:52:42.980Z,100023.50
2023-05-05T02:55:09.735Z,100042.13
2023-05-05T02:58:04.216Z,100031.56
2023-05-05T03:01:01.227Z,100025.78
2023-05-05T03:03:40.862Z,100026.41
2023-05-05T03:06:16.605Z,100023.44
2023-05-05T03:08:49.869Z,100029.34
2023-05-05T03:11:35.777Z,100035.25
2023-05-05T03:14:18.290Z,100018.13
2023-05-05T03:16:46.290Z,100027.28
2023-05-05T03:19:16.229Z,100015.50
2023-05-05T03:21:42.984Z,100026.75
2023-05-05T03:24:19.653Z,100026.66
2023-05-05T03:26:47.756Z,100018.19
2023-05-05T03:29:15.116Z,100035.69
2023-05-05T03:31:41.938Z,100025.00
2023-05-05T03:34:08.763Z,100032.22
2023-05-05T03:36:35.767Z,100032.41
2023-05-05T03:39:02.129Z,100041.59
2023-05-05T03:41:28.394Z,100044.63
2023-05-05T03:43:54.744Z,100035.91
2023-05-05T03:46:21.219Z,100040.72
2023-05-05T03:48:48.395Z,100033.28
2023-05-05T03:51:14.988Z,100039.00
2023-05-05T03:53:41.553Z,100039.44
2023-05-05T03:56:08.046Z,100036.09
2023-05-05T03:58:34.337Z,100040.94
2023-05-05T04:01:00.676Z,100025.09
2023-05-05T04:03:27.191Z,100032.22
2023-05-05T04:05:53.599Z,100044.84
2023-05-05T04:08:19.984Z,100034.50
2023-05-05T04:10:46.525Z,100038.34
2023-05-05T04:13:12.829Z,100039.34
2023-05-05T04:15:44.425Z,100045.63
2023-05-05T04:18:10.801Z,100044.56
2023-05-05T04:20:37.117Z,100042.91
2023-05-05T04:23:03.419Z,100054.88
2023-05-05T04:25:29.783Z,100030.25
2023-05-05T04:27:56.322Z,100054.78
2023-05-05T04:30:22.541Z,100051.16
2023-05-05T04:32:48.879Z,100019.50
2023-05-05T04:35:15.416Z,100055.19
2023-05-05T04:37:41.708Z,100032.44
2023-05-05T04:40:09.165Z,100056.63
2023-05-05T04:42:36.512Z,100062.75
2023-05-05T04:45:02.894Z,100064.41
2023-05-05T04:47:29.294Z,100049.34
2023-05-05T04:49:56.037Z,100067.75
2023-05-05T04:52:22.550Z,100057.41
2023-05-05T04:54:48.847Z,100070.47
2023-05-05T04:57:15.167Z,100059.00
2023-05-05T04:59:41.486Z,100061.22
2023-05-05T05:02:07.856Z,100071.63
2023-05-05T05:04:34.165Z,100067.66
2023-05-05T05:07:01.458Z,100064.91
2023-05-05T05:09:27.761Z,100071.38
2023-05-05T05:11:54.092Z,100071.31
2023-05-05T05:14:20.384Z,100074.00
2023-05-05T05:16:51.001Z,100072.06
2023-05-05T05:19:17.454Z,100090.06
2023-05-05T05:21:43.731Z,100077.59
2023-05-05T05:24:11.456Z,100079.97
2023-05-05T05:26:38.450Z,100080.75
2023-05-05T05:29:04.817Z,100080.13
2023-05-05T05:31:31.194Z,100079.03
2023-05-05T05:33:57.508Z,100081.84
2023-05-05T05:36:23.816Z,100089.41
2023-05-05T05:38:50.068Z,100090.97
2023-05-05T05:41:16.875Z,100093.41
2023-05-05T05:43:43.171Z,100060.44
2023-05-05T05:46:09.548Z,100089.72
2023-05-05T05:48:35.946Z,100085.06
2023-05-05T05:51:02.435Z,100101.69
2023-05-05T05:53:28.732Z,100102.13
2023-05-05T05:55:55.066Z,100099.25
2023-05-05T05:58:21.397Z,100104.19
2023-05-05T06:00:48.508Z,100114.44
2023-05-05T06:03:14.978Z,100103.22
2023-05-05T06:05:41.620Z,100106.44
2023-05-05T06:08:07.833Z,100113.41
2023-05-05T06:10:34.315Z,100108.44
2023-05-05T06:13:00.995Z,100118.22
2023-05-05T06:15:27.364Z,100111.41
2023-05-05T06:17:53.780Z,100117.13
2023-05-05T06:20:20.223Z,100118.41
2023-05-05T06:22:46.534Z,100122.91
2023-05-05T06:25:12.833Z,100123.94
2023-05-05T06:27:39.140Z,100119.69
2023-05-05T06:30:09.647Z,100111.03
2023-05-05T06:32:36.184Z,100122.50
2023-05-05T06:35:02.505Z,100130.16
2023-05-05T06:37:28.789Z,100130.97
2023-05-05T06:39:55.159Z,100124.97
2023-05-05T06:42:21.451Z,100125.66
2023-05-05T06:44:47.735Z,100129.59
2023-05-05T06:47:14.071Z,100120.13
2023-05-05T06:49:40.298Z,100118.69
2023-05-05T06:52:08.170Z,100122.19
2023-05-05T06:54:34.508Z,100102.28
2023-05-05T06:57:00.777Z,100114.47
2023-05-05T06:59:27.074Z,100120.16
2023-05-05T07:01:53.366Z,100122.31
2023-05-05T07:04:19.678Z,100116.09
2023-05-05T07:06:46.198Z,100130.47
2023-05-05T07:09:12.668Z,100123.28
2023-05-05T07:11:39.066Z,100109.63
2023-05-05T07:14:05.347Z,100117.00
2023-05-05T07:16:34.529Z,100122.56
2023-05-05T07:19:00.932Z,100120.00
2023-05-05T07:21:27.158Z,100118.22
2023-05-05T07:23:53.445Z,100127.66
2023-05-05T07:26:19.881Z,100116.00
2023-05-05T07:28:46.249Z,100131.75
2023-05-05T07:31:12.548Z,100129.75
2023-05-05T07:33:38.959Z,100125.91
2023-05-05T07:36:05.747Z,100136.94
2023-05-05T07:38:32.012Z,100130.25
2023-05-05T07:40:58.232Z,100123.78
2023-05-05T07:43:24.515Z,100119.81
2023-05-05T07:45:50.925Z,100118.66
2023-05-05T07:48:17.288Z,100113.78
2023-05-05T07:50:43.582Z,100109.28
2023-05-05T07:53:14.605Z,100111.03
2023-05-05T07:55:41.855Z,100105.25
2023-05-05T07:58:08.514Z,100113.28
2023-05-05T08:00:35.025Z,100109.94
2023-05-05T08:03:01.381Z,100114.78
2023-05-05T08:05:27.968Z,100119.63
2023-05-05T08:07:54.500Z,100113.28
2023-05-05T08:10:22.172Z,100118.94
2023-05-05T08:12:48.589Z,100120.81
2023-05-05T08:15:14.898Z,100117.94
2023-05-05T08:17:52.251Z,100124.53
2023-05-05T08:20:20.108Z,100108.38
2023-05-05T08:22:47.004Z,100116.44
2023-05-05T08:25:14.054Z,100121.50
2023-05-05T08:27:41.689Z,100106.94
2023-05-05T08:30:09.257Z,100107.25
2023-05-05T08:32:35.632Z,100107.03
2023-05-05T08:35:05.403Z,100106.94
2023-05-05T08:37:32.427Z,100098.47
2023-05-05T08:39:58.901Z,100092.28
2023-05-05T08:42:36.062Z,100100.75
2023-05-05T08:45:04.548Z,100095.56
2023-05-05T08:47:32.259Z,100100.16
2023-05-05T08:49:59.113Z,100105.44
2023-05-05T08:52:32.647Z,100102.88
2023-05-05T08:55:13.967Z,100097.25
2023-05-05T08:57:52.322Z,100105.06
2023-05-05T09:00:22.318Z,100092.25
2023-05-05T09:02:49.481Z,100096.03
2023-05-05T09:05:16.726Z,100093.81
2023-05-05T09:07:44.209Z,100094.00
2023-05-05T09:10:12.001Z,100090.19
2023-05-05T09:12:41.968Z,100101.19
2023-05-05T09:15:10.428Z,100093.66
2023-05-05T09:17:37.544Z,100101.81
2023-05-05T09:20:14.037Z,100089.03
2023-05-05T09:22:47.744Z,100101.31
2023-05-05T09:25:16.389Z,100086.91
2023-05-05T09:27:48.187Z,100092.69
2023-05-05T09:30:25.177Z,100084.94
2023-05-05T09:32:54.534Z,100077.75
2023-05-05T09:35:22.274Z,100079.34
2023-05-05T09:37:48.757Z,100081.25
2023-05-05T09:40:17.935Z,100078.50
2023-05-05T09:42:44.708Z,100078.91
2023-05-05T09:45:17.314Z,100073.50
2023-05-05T09:47:45.811Z,100068.22
2023-05-05T09:50:16.005Z,100071.19
2023-05-05T09:52:46.203Z,100067.13
2023-05-05T09:55:18.843Z,100058.13
2023-05-05T09:57:47.214Z,100062.94
2023-05-05T10:00:14.486Z,100058.00
2023-05-05T10:02:41.777Z,100061.41
2023-05-05T10:05:13.360Z,100066.81
2023-05-05T10:07:41.222Z,100053.53
2023-05-05T10:10:10.310Z,100054.28
2023-05-05T10:12:37.897Z,100043.53
2023-05-05T10:15:06.460Z,100054.28
2023-05-05T10:17:36.428Z,100060.88
2023-05-05T10:20:04.064Z,100056.91
2023-05-05T10:22:35.059Z,100053.38
2023-05-05T10:25:13.484Z,100054.69
2023-05-05T10:27:50.513Z,100045.84
2023-05-05T10:30:22.671Z,100057.22
2023-05-05T10:33:13.244Z,100045.78
2023-05-05T10:35:46.209Z,100048.47
2023-05-05T10:38:13.249Z,100048.78
2023-05-05T10:40:46.502Z,100049.03
2023-05-05T10:43:14.379Z,100037.94
2023-05-05T10:45:41.679Z,100042.22
2023-05-05T10:48:14.351Z,100043.69
2023-05-05T10:50:51.072Z,100052.31
2023-05-05T10:53:26.028Z,100044.50
2023-05-05T10:56:16.912Z,100061.16
2023-05-05T10:58:55.626Z,100059.41
2023-05-05T11:01:36.015Z,100035.06
2023-05-05T11:04:22.547Z,100051.25
2023-05-05T11:07:14.371Z,100046.72
2023-05-05T11:09:58.147Z,100044.56
2023-05-05T11:12:24.525Z,100021.66
2023-05-05T11:15:27.852Z,100032.53
2023-05-05T11:17:58.463Z,100023.63
2023-05-05T11:20:48.029Z,100033.63
2023-05-05T11:23:20.333Z,100029.97
2023-05-05T11:25:47.089Z,100021.09
2023-05-05T11:28:19.324Z,100015.59
2023-05-05T11:30:54.604Z,99999.66
2023-05-05T11:33:25.533Z,100001.34
2023-05-05T11:36:06.762Z,99988.19
2023-05-05T11:38:36.111Z,99992.16
2023-05-05T11:41:33.022Z,99986.41
2023-05-05T11:44:15.660Z,99985.44
2023-05-05T11:46:51.203Z,99978.13
2023-05-05T11:49:31.478Z,99985.47
2023-05-05T11:52:04.346Z,99974.97
2023-05-05T11:54:31.668Z,99982.09
2023-05-05T11:57:01.922Z,99950.34
2023-05-05T11:59:28.214Z,99990.66
2023-05-05T12:01:54.571Z,99972.69
2023-05-05T12:04:20.967Z,99975.94
2023-05-05T12:06:48.874Z,99961.97
2023-05-05T12:09:16.963Z,99961.97
2023-05-05T12:11:53.577Z,99947.84
2023-05-05T12:14:20.887Z,99955.31
2023-05-05T12:16:56.723Z,99955.34
2023-05-05T12:19:23.844Z,99957.06
2023-05-05T12:21:50.585Z,99960.31
2023-05-05T12:24:16.919Z,99954.06
2023-05-05T12:26:43.244Z,99963.13
2023-05-05T12:29:09.558Z,99964.03
2023-05-05T12:31:37.364Z,99951.16
2023-05-05T12:34:04.767Z,99951.16
2023-05-05T12:36:33.588Z,99947.97
2023-05-05T12:39:00.389Z,99948.19
2023-05-05T12:41:27.681Z,99944.44
2023-05-05T12:43:58.347Z,99945.63
2023-05-05T12:46:25.638Z,99943.25
2023-05-05T12:49:05.659Z,99941.59
2023-05-05T12:51:33.603Z,99934.16
2023-05-05T12:54:11.579Z,99926.13
2023-05-05T12:56:42.880Z,99925.81
2023-05-05T12:59:11.794Z,99924.16
2023-05-05T13:01:52.291Z,99927.84
2023-05-05T13:04:20.937Z,99935.22
2023-05-05T13:06:49.219Z,99915.66
2023-05-05T13:09:33.833Z,99908.44
2023-05-05T13:12:02.781Z,99910.69
2023-05-05T13:14:30.756Z,99896.78
2023-05-05T13:16:57.386Z,99902.84
2023-05-05T13:19:27.590Z,99899.88
2023-05-05T13:21:58.212Z,99905.50
2023-05-05T13:24:37.988Z,99894.81
2023-05-05T13:27:09.257Z,99893.28
2023-05-05T13:29:35.776Z,99884.50
2023-05-05T13:32:02.157Z,99893.31
2023-05-05T13:34:28.707Z,99850.91
2023-05-05T13:36:55.117Z,99863.22
2023-05-05T13:39:21.574Z,99854.25
2023-05-05T13:41:48.031Z,99866.56
2023-05-05T13:44:14.437Z,99872.84
2023-05-05T13:46:42.228Z,99841.41
2023-05-05T13:49:08.643Z,99863.91
2023-05-05T13:51:35.162Z,99851.81
2023-05-05T13:54:01.594Z,99854.44
2023-05-05T13:56:28.012Z,99872.63
2023-05-05T13:58:54.580Z,99847.50
2023-05-05T14:01:21.103Z,99852.72
2023-05-05T14:03:47.451Z,99851.88
2023-05-05T14:06:13.878Z,99858.06
2023-05-05T14:08:40.244Z,99866.72
2023-05-05T14:11:06.679Z,99862.63
2023-05-05T14:13:32.993Z,99862.28
2023-05-05T14:15:59.463Z,99858.88
2023-05-05T14:18:25.871Z,99857.19
2023-05-05T14:20:52.293Z,99852.97
2023-05-05T14:23:18.584Z,99858.31
2023-05-05T14:25:45.050Z,99857.31
2023-05-05T14:28:11.359Z,99845.84
2023-05-05T14:30:37.699Z,99837.28
2023-05-05T14:33:04.104Z,99835.84
2023-05-05T14:35:31.152Z,99854.44
2023-05-05T14:37:57.477Z,99848.53
2023-05-05T14:40:23.824Z,99843.84
2023-05-05T14:42:50.818Z,99859.66
2023-05-05T14:45:17.863Z,99849.38
2023-05-05T14:47:44.338Z,99853.84
2023-05-05T14:50:10.978Z,99847.19
2023-05-05T14:52:40.172Z,99857.28
2023-05-05T14:55:07.745Z,99851.66
2023-05-05T14:57:34.498Z,99849.22
2023-05-05T15:00:00.889Z,99859.97
2023-05-05T15:02:27.257Z,99864.84
2023-05-05T15:04:53.603Z,99878.44
2023-05-05T15:07:20.497Z,99876.16
2023-05-05T15:09:46.944Z,99853.28
2023-05-05T15:12:13.420Z,99867.59
2023-05-05T15:14:39.918Z,99859.13
2023-05-05T15:17:06.502Z,99881.50
2023-05-05T15:19:32.815Z,99874.06
2023-05-05T15:21:59.140Z,99881.84
2023-05-05T15:24:25.921Z,99880.84
2023-05-05T15:26:52.223Z,99883.47
2023-05-05T15:29:18.531Z,99880.97
2023-05-05T15:31:44.840Z,99886.41
2023-05-05T15:34:11.192Z,99882.22
2023-05-05T15:36:37.470Z,99875.03
2023-05-05T15:39:04.356Z,99890.69
2023-05-05T15:41:30.785Z,99884.53
2023-05-05T15:43:57.373Z,99882.88
2023-05-05T15:46:23.748Z,99886.53
2023-05-05T15:48:50.157Z,99876.50
2023-05-05T15:51:16.427Z,99905.47
2023-05-05T15:53:42.691Z,99892.84
2023-05-05T15:56:09.018Z,99883.56
2023-05-05T15:58:36.580Z,99913.09
2023-05-05T16:01:02.962Z,99922.69
2023-05-05T16:03:29.464Z,99919.75
2023-05-05T16:05:55.860Z,99924.53
2023-05-05T16:08:22.188Z,99926.16
2023-05-05T16:10:48.550Z,99932.16
2023-05-05T16:13:15.025Z,99930.91
2023-05-05T16:15:41.402Z,99933.50
2023-05-05T16:18:07.745Z,99937.09
2023-05-05T16:20:34.132Z,99945.19
2023-05-05T16:23:00.521Z,99951.06
2023-05-05T16:25:26.910Z,99938.50
2023-05-05T16:27:56.504Z,99964.38
2023-05-05T16:30:22.814Z,99967.31
2023-05-05T16:32:51.169Z,99968.75
2023-05-05T16:35:17.896Z,99986.13
2023-05-05T16:37:44.167Z,99991.38
2023-05-05T16:40:11.318Z,99986.53
2023-05-05T16:42:37.622Z,99980.06
2023-05-05T16:45:04.356Z,99986.66
2023-05-05T16:47:30.652Z,99980.44
2023-05-05T16:49:57.103Z,99992.78
2023-05-05T16:52:23.448Z,99988.59
2023-05-05T16:54:55.305Z,99973.28
2023-05-05T16:57:22.377Z,99977.09
2023-05-05T16:59:49.098Z,99962.75
2023-05-05T17:02:15.476Z,99954.28
2023-05-05T17:04:41.811Z,99961.06
2023-05-05T17:07:08.173Z,99947.88
2023-05-05T17:09:34.468Z,99945.72
2023-05-05T17:12:00.689Z,99950.22
2023-05-05T17:14:27.298Z,99945.59
2023-05-05T17:16:54.417Z,99942.56
2023-05-05T17:19:20.706Z,99956.66
2023-05-05T17:21:47.012Z,99971.97
2023-05-05T17:24:13.299Z,99955.75
2023-05-05T17:26:40.457Z,99956.59
2023-05-05T17:29:06.908Z,99972.00
2023-05-05T17:31:33.224Z,99984.38
2023-05-05T17:33:59.531Z,99974.19
2023-05-05T17:36:25.745Z,99984.75
2023-05-05T17:38:52.003Z,99978.50
2023-05-05T17:41:18.226Z,99979.34
2023-05-05T17:43:44.504Z,99985.81
2023-05-05T17:46:10.753Z,99983.41
2023-05-05T17:48:37.102Z,99979.75
2023-05-05T17:51:03.364Z,99993.09
2023-05-05T17:53:29.654Z,99987.72
2023-05-05T17:55:55.907Z,99998.81
2023-05-05T17:58:22.231Z,99985.31
2023-05-05T18:00:48.460Z,99993.16
2023-05-05T18:03:14.880Z,99985.94
2023-05-05T18:05:41.230Z,100000.13
2023-05-05T18:08:07.509Z,99992.28
2023-05-05T18:10:33.825Z,100001.53
2023-05-05T18:13:00.149Z,99989.44
2023-05-05T18:15:26.507Z,99983.28
2023-05-05T18:17:53.817Z,99996.66
2023-05-05T18:20:20.253Z,99995.78
2023-05-05T18:22:46.843Z,99982.09
2023-05-05T18:25:13.368Z,100002.88
2023-05-05T18:27:42.036Z,99924.03
2023-05-05T18:30:08.682Z,100010.41
2023-05-05T18:32:35.049Z,100013.00
2023-05-05T18:35:01.372Z,100020.97
2023-05-05T18:37:27.924Z,100020.53
2023-05-05T18:39:54.289Z,100016.16
2023-05-05T18:42:20.576Z,100018.75
2023-05-05T18:44:46.862Z,100010.31
2023-05-05T18:47:13.294Z,100010.28
2023-05-05T18:49:39.642Z,100017.66
2023-05-05T18:52:06.003Z,100016.91
2023-05-05T18:54:32.284Z,100023.91
2023-05-05T18:56:59.427Z,100027.66
2023-05-05T18:59:25.780Z,100025.28
2023-05-05T19:01:52.284Z,100029.81
2023-05-05T19:04:30.133Z,100026.22
2023-05-05T19:06:57.565Z,100030.84
2023-05-05T19:09:23.868Z,100033.16
2023-05-05T19:11:50.531Z,100040.97
2023-05-05T19:14:17.564Z,100038.06
2023-05-05T19:16:44.023Z,100034.50
2023-05-05T19:19:11.070Z,100036.53
2023-05-05T19:21:37.431Z,100035.84
2023-05-05T19:24:03.771Z,100040.84
2023-05-05T19:26:30.189Z,100040.09
2023-05-05T19:28:56.490Z,100038.56
2023-05-05T19:31:27.388Z,100041.34
2023-05-05T19:34:01.719Z,100046.88
2023-05-05T19:36:28.838Z,100046.03
2023-05-05T19:38:55.754Z,100053.25
2023-05-05T19:41:22.078Z,100047.28
2023-05-05T19:43:49.778Z,100051.91
2023-05-05T19:46:17.123Z,100051.03
2023-05-05T19:48:44.009Z,100051.16
2023-05-05T19:51:10.312Z,100047.78
2023-05-05T19:53:36.582Z,100051.31
2023-05-05T19:56:04.692Z,100049.63
2023-05-05T19:58:31.327Z,100047.09
2023-05-05T20:00:57.641Z,100052.78
2023-05-05T20:03:24.085Z,100049.69
2023-05-05T20:05:50.464Z,100055.66
2023-05-05T20:08:16.719Z,100054.97
2023-05-05T20:10:43.002Z,100050.84
2023-05-05T20:13:09.381Z,100056.41
2023-05-05T20:15:35.770Z,100055.81
2023-05-05T20:18:02.260Z,100057.47
2023-05-05T20:20:28.586Z,100059.56
2023-05-05T20:22:54.884Z,100057.25
2023-05-05T20:25:21.543Z,100054.94
2023-05-05T20:27:47.878Z,100058.94
2023-05-05T20:30:14.409Z,100066.44
2023-05-05T20:32:41.304Z,100066.75
2023-05-05T20:35:08.338Z,100067.97
2023-05-05T20:37:34.640Z,100070.94
2023-05-05T20:40:01.008Z,100074.75
2023-05-05T20:42:27.669Z,100081.41
2023-05-05T20:44:54.096Z,100081.69
2023-05-05T20:47:20.593Z,100073.06
2023-05-05T20:49:46.880Z,100077.56
2023-05-05T20:52:13.200Z,100079.63
2023-05-05T20:54:39.687Z,100077.22
2023-05-05T20:57:07.440Z,100078.09
2023-05-05T20:59:33.750Z,100080.50
2023-05-05T21:02:00.124Z,100088.66
2023-05-05T21:04:26.368Z,100082.41
2023-05-05T21:06:52.682Z,100086.06
2023-05-05T21:09:21.250Z,100098.00
2023-05-05T21:11:48.677Z,100088.50
2023-05-05T21:14:15.004Z,100085.03
2023-05-05T21:16:41.638Z,100082.44
2023-05-05T21:19:08.012Z,100078.91
2023-05-05T21:21:34.283Z,100092.31
2023-05-05T21:24:00.811Z,100088.84
2023-05-05T21:26:27.157Z,100089.69
2023-05-05T21:28:53.431Z,100091.59
2023-05-05T21:31:22.432Z,100084.34
2023-05-05T21:33:49.209Z,100081.16
2023-05-05T21:36:17.405Z,100087.38
2023-05-05T21:38:43.708Z,100085.53
2023-05-05T21:41:09.987Z,100089.34
2023-05-05T21:43:36.547Z,100079.59
2023-05-05T21:46:04.539Z,100086.16
2023-05-05T21:48:31.722Z,100081.91
2023-05-05T21:50:58.061Z,100084.09
2023-05-05T21:53:24.661Z,100078.47
2023-05-05T21:55:51.492Z,100085.00
2023-05-05T21:58:17.855Z,100080.69
2023-05-05T22:00:44.920Z,100088.88
2023-05-05T22:03:11.323Z,100091.72
2023-05-05T22:05:38.151Z,100082.38
2023-05-05T22:08:04.573Z,100085.13
2023-05-05T22:10:30.936Z,100086.25
2023-05-05T22:12:57.928Z,100082.00
2023-05-05T22:15:27.603Z,100090.81
2023-05-05T22:17:56.374Z,100087.28
2023-05-05T22:20:23.070Z,100088.53
2023-05-05T22:22:49.342Z,100079.41
2023-05-05T22:25:15.643Z,100084.94
2023-05-05T22:27:41.978Z,100091.13
2023-05-05T22:30:08.769Z,100094.78
2023-05-05T22:32:35.099Z,100089.81
2023-05-05T22:35:01.426Z,100086.81
2023-05-05T22:37:28.034Z,100084.41
2023-05-05T22:39:54.316Z,100083.44
2023-05-05T22:42:20.829Z,100082.66
2023-05-05T22:44:48.621Z,100081.88
2023-05-05T22:47:15.080Z,100093.69
2023-05-05T22:49:41.508Z,100090.41
2023-05-05T22:52:08.597Z,100092.63
2023-05-05T22:54:34.881Z,100096.16
2023-05-05T22:57:02.129Z,100098.16
2023-05-05T22:59:28.407Z,100098.34
2023-05-05T23:01:54.738Z,100111.06
2023-05-05T23:04:23.609Z,100100.56
2023-05-05T23:06:50.127Z,100111.28
2023-05-05T23:09:16.362Z,100104.19
2023-05-05T23:11:42.673Z,100108.59
2023-05-05T23:14:08.930Z,100099.09
2023-05-05T23:16:35.270Z,100110.09
2023-05-05T23:19:01.612Z,100105.22
2023-05-05T23:21:29.221Z,100113.41
2023-05-05T23:23:55.705Z,100108.06
2023-05-05T23:26:22.031Z,100111.75
2023-05-05T23:28:48.319Z,100109.47
2023-05-05T23:31:14.646Z,100111.41
2023-05-05T23:33:40.958Z,100111.56
2023-05-05T23:36:07.374Z,100110.63
2023-05-05T23:38:33.645Z,100100.94
2023-05-05T23:40:59.910Z,100107.19
2023-05-05T23:43:26.232Z,100098.28
2023-05-05T23:45:52.644Z,100099.91
2023-05-05T23:48:19.215Z,100089.38
2023-05-05T23:50:45.573Z,100080.78
2023-05-05T23:53:11.881Z,100090.47
2023-05-05T23:55:38.171Z,100086.00
2023-05-05T23:58:04.517Z,100087.75
